Time;durP1;ratioP1;P1;durP2;ratioP2;P2;SDS_P1;SDS_P2;PMS_P1;PMS_P2;Temp;Humidity;BMP_temperature;BMP_pressure;BME280_temperature;BME280_humidity;BME280_pressure;Samples;Min_cycle;Max_cycle;Signal;HPM_P1;HPM_P2
2022/06/16 00:00:30;;;;;;;4.88;3.92;;;;;;;21.40;51.00;97204.91;4967189;28;20241;-77
2022/06/16 00:02:56;;;;;;;4.07;3.67;;;;;;;21.37;50.77;97204.75;4948032;28;20266;-78
2022/06/16 00:05:25;;;;;;;5.10;4.13;;;;;;;21.29;51.00;97201.03;4963882;28;20663;-78
2022/06/16 00:07:51;;;;;;;5.60;4.30;;;;;;;21.29;51.09;97198.38;4964181;28;20182;-78
2022/06/16 00:10:17;;;;;;;5.80;4.05;;;;;;;21.20;51.55;97200.25;4964645;28;20700;-78
2022/06/16 00:12:45;;;;;;;6.15;4.28;;;;;;;21.17;51.36;97199.00;4949572;28;20268;-77
2022/06/16 00:15:13;;;;;;;4.47;4.07;;;;;;;21.11;51.34;97187.00;4965821;28;20179;-78
2022/06/16 00:17:38;;;;;;;4.95;3.85;;;;;;;21.10;51.51;97191.53;4948611;28;20203;-78
2022/06/16 00:20:05;;;;;;;6.72;4.65;;;;;;;21.04;51.64;97187.50;4935301;28;20190;-78
2022/06/16 00:22:35;;;;;;;6.32;4.10;;;;;;;20.85;51.75;97184.38;4964994;28;20555;-78
2022/06/16 00:25:01;;;;;;;5.30;4.50;;;;;;;20.92;51.63;97179.38;4949192;28;20271;-78
2022/06/16 00:27:26;;;;;;;4.60;4.20;;;;;;;20.92;51.46;97180.19;4966785;28;20255;-78
2022/06/16 00:29:53;;;;;;;5.35;4.38;;;;;;;20.92;51.52;97166.16;4948818;28;20419;-78
2022/06/16 00:32:18;;;;;;;4.82;4.40;;;;;;;20.91;51.69;97175.19;4932849;28;20389;-78
2022/06/16 00:34:43;;;;;;;4.10;3.80;;;;;;;20.87;51.25;97169.75;4965492;28;20707;-77
2022/06/16 00:37:09;;;;;;;5.15;3.97;;;;;;;20.91;51.60;97168.03;4949556;28;20387;-78
2022/06/16 00:39:34;;;;;;;4.13;3.70;;;;;;;20.94;51.24;97167.41;4949134;28;20222;-78
2022/06/16 00:42:11;;;;;;;5.65;4.20;;;;;;;20.84;50.88;97173.03;4967597;28;20230;-77
2022/06/16 00:44:42;;;;;;;4.30;3.90;;;;;;;20.98;50.98;97167.56;4949502;28;20252;-78
2022/06/16 00:47:07;;;;;;;4.63;4.22;;;;;;;20.97;51.62;97173.94;4948575;28;20203;-78
2022/06/16 00:49:34;;;;;;;4.50;4.10;;;;;;;20.84;52.01;97170.38;4964922;28;20715;-78
2022/06/16 00:52:08;;;;;;;4.80;4.30;;;;;;;20.66;52.42;97164.28;4949086;28;20287;-78
2022/06/16 00:54:42;;;;;;;3.90;3.60;;;;;;;20.61;52.78;97160.97;4949364;28;20297;-78
2022/06/16 00:57:14;;;;;;;4.90;4.10;;;;;;;20.54;53.22;97167.50;4948381;28;20637;-78
2022/06/16 00:59:41;;;;;;;7.18;4.65;;;;;;;20.54;53.24;97164.09;4946694;28;20632;-78
2022/06/16 01:02:08;;;;;;;4.78;4.32;;;;;;;20.49;53.57;97166.88;4942264;28;20380;-78
2022/06/16 01:04:52;;;;;;;6.00;4.47;;;;;;;20.45;53.68;97161.44;4966079;28;20198;-78
2022/06/16 01:07:29;;;;;;;7.55;4.63;;;;;;;20.26;53.85;97172.28;4965318;28;20203;-78
2022/06/16 01:09:55;;;;;;;5.32;4.82;;;;;;;20.40;53.15;97161.56;4964665;28;20281;-78
2022/06/16 01:15:27;;;;;;;6.53;4.40;;;;;;;20.26;53.71;97166.22;4964890;28;20291;-78
2022/06/16 01:18:04;;;;;;;4.55;4.15;;;;;;;20.19;53.74;97166.66;4964484;28;20183;-78
2022/06/16 01:20:39;;;;;;;5.55;4.50;;;;;;;20.17;53.79;97168.84;4932985;28;20110;-78
2022/06/16 01:23:35;;;;;;;5.88;4.88;;;;;;;20.02;54.31;97160.22;4966987;28;20798;-77
2022/06/16 01:26:23;;;;;;;5.28;4.30;;;;;;;19.99;54.13;97166.13;4964753;28;20624;-78
2022/06/16 01:29:22;;;;;;;5.45;4.95;;;;;;;19.94;54.50;97163.63;4948505;28;20192;-78
2022/06/16 01:32:04;;;;;;;5.55;5.05;;;;;;;19.88;54.37;97164.03;4970148;28;20351;-78
2022/06/16 01:34:37;;;;;;;5.28;4.65;;;;;;;20.05;54.05;97152.75;4951774;28;20291;-77
2022/06/16 01:37:39;;;;;;;4.85;4.35;;;;;;;19.88;54.77;97148.19;4952159;28;20101;-78
2022/06/16 01:40:17;;;;;;;5.18;4.30;;;;;;;20.02;54.12;97157.59;4968646;28;20668;-78
2022/06/16 01:42:59;;;;;;;5.50;4.97;;;;;;;19.74;54.13;97150.91;4952630;28;20332;-77
2022/06/16 01:45:43;;;;;;;5.60;5.10;;;;;;;19.73;54.42;97149.38;4969189;28;20285;-77
2022/06/16 01:48:10;;;;;;;7.22;5.55;;;;;;;19.89;53.92;97145.25;4951390;28;20314;-78
2022/06/16 01:50:51;;;;;;;4.85;4.45;;;;;;;19.72;54.72;97147.78;4969056;28;20175;-78
2022/06/16 01:53:21;;;;;;;6.05;4.93;;;;;;;19.79;54.33;97156.09;4951702;28;20666;-78
2022/06/16 01:55:52;;;;;;;6.15;4.60;;;;;;;19.73;54.50;97150.13;4968279;28;20215;-78
2022/06/16 01:58:31;;;;;;;7.93;4.80;;;;;;;19.65;54.66;97158.78;4951897;28;20662;-78
2022/06/16 02:01:00;;;;;;;4.90;4.40;;;;;;;19.73;54.08;97162.56;4952043;28;20703;-78
2022/06/16 02:03:30;;;;;;;5.15;4.63;;;;;;;19.67;53.92;97158.50;4968634;28;20270;-78
2022/06/16 02:05:58;;;;;;;4.95;4.55;;;;;;;19.68;53.94;97157.44;4935777;28;20172;-78
2022/06/16 02:08:27;;;;;;;5.85;4.72;;;;;;;19.63;54.53;97153.81;4951708;28;20191;-78
2022/06/16 02:10:59;;;;;;;5.40;4.90;;;;;;;19.60;54.30;97164.22;4968580;28;20593;-78
2022/06/16 02:13:28;;;;;;;5.25;4.75;;;;;;;19.65;54.58;97169.38;4968402;28;20191;-78
2022/06/16 02:16:01;;;;;;;4.97;4.40;;;;;;;19.64;54.39;97173.09;4967850;28;20276;-77
2022/06/16 02:18:38;;;;;;;4.75;4.32;;;;;;;19.61;54.08;97171.84;4951426;28;20650;-78
2022/06/16 02:21:13;;;;;;;5.22;4.70;;;;;;;19.70;54.17;97161.31;4968159;28;20363;-77
2022/06/16 02:23:39;;;;;;;5.40;4.88;;;;;;;19.64;54.52;97163.31;4964565;28;20198;-78
2022/06/16 02:26:04;;;;;;;5.45;4.50;;;;;;;19.57;54.19;97168.25;4934956;28;20180;-77
2022/06/16 02:28:30;;;;;;;4.88;4.38;;;;;;;19.56;54.08;97163.25;4958414;28;20207;-78
2022/06/16 02:31:15;;;;;;;6.40;5.18;;;;;;;19.36;54.70;97164.53;4969953;28;20270;-77
2022/06/16 02:34:12;;;;;;;5.85;4.90;;;;;;;19.39;54.23;97174.50;4963344;28;20278;-77
2022/06/16 02:36:53;;;;;;;5.10;4.60;;;;;;;19.50;54.56;97180.31;4966676;28;20195;-77
2022/06/16 02:39:48;;;;;;;5.88;5.10;;;;;;;19.35;54.75;97178.84;4967136;28;20185;-77
2022/06/16 02:42:19;;;;;;;7.77;4.37;;;;;;;19.42;54.14;97176.56;4965566;28;20657;-77
2022/06/16 02:45:02;;;;;;;6.03;4.72;;;;;;;19.37;54.40;97188.00;4966874;28;20465;-77
2022/06/16 02:47:47;;;;;;;5.55;4.95;;;;;;;19.58;54.05;97183.00;4944757;28;20217;-76
2022/06/16 02:50:54;;;;;;;5.45;4.95;;;;;;;19.38;54.50;97180.84;4981894;28;20175;-76
2022/06/16 02:56:27;;;;;;;;;;;;;;;19.55;53.44;97188.09;4975318;28;20198;-76
2022/06/16 02:58:54;;;;;;;5.20;4.07;;;;;;;19.92;52.32;97186.94;4947133;28;20129;-76
2022/06/16 03:01:20;;;;;;;4.60;3.60;;;;;;;20.09;51.68;97186.22;4959992;28;20288;-76
2022/06/16 03:04:32;;;;;;;4.13;3.72;;;;;;;19.98;51.81;97179.63;4956329;28;20275;-75
2022/06/16 03:06:58;;;;;;;4.03;3.60;;;;;;;20.35;50.85;97181.00;4915535;28;20308;-76
2022/06/16 03:09:23;;;;;;;5.15;3.63;;;;;;;20.40;50.96;97186.16;4909484;28;20712;-76
2022/06/16 03:11:48;;;;;;;4.25;3.83;;;;;;;20.41;50.68;97181.66;4913509;28;20155;-76
2022/06/16 03:14:14;;;;;;;4.47;4.07;;;;;;;20.46;50.54;97188.66;4895074;28;20268;-76
2022/06/16 03:16:39;;;;;;;4.53;3.75;;;;;;;20.49;50.27;97193.31;4913092;28;20232;-76
2022/06/16 03:19:05;;;;;;;3.70;3.30;;;;;;;20.47;50.31;97195.50;4877074;28;20352;-77
2022/06/16 03:21:30;;;;;;;5.22;3.72;;;;;;;20.46;50.88;97197.38;4926062;28;20305;-77
2022/06/16 03:23:56;;;;;;;5.82;3.90;;;;;;;20.41;51.26;97197.53;4909249;28;20232;-76
2022/06/16 03:26:21;;;;;;;3.83;3.33;;;;;;;20.39;50.77;97203.13;4908425;28;20217;-76
2022/06/16 03:28:47;;;;;;;4.80;4.00;;;;;;;20.39;50.81;97204.97;4911353;28;20727;-77
2022/06/16 03:31:12;;;;;;;4.00;3.67;;;;;;;20.35;50.73;97210.09;4909124;28;20217;-76
2022/06/16 03:33:38;;;;;;;3.45;3.15;;;;;;;20.34;51.01;97203.25;4925608;28;20300;-77
2022/06/16 03:36:03;;;;;;;4.25;3.70;;;;;;;20.30;50.75;97199.66;4909412;28;20171;-77
2022/06/16 03:38:36;;;;;;;3.75;3.45;;;;;;;20.28;50.84;97199.19;4961296;28;20730;-77
2022/06/16 03:41:02;;;;;;;4.30;3.70;;;;;;;20.27;51.01;97200.28;4968175;28;20649;-77
2022/06/16 03:43:27;;;;;;;5.43;3.70;;;;;;;20.22;51.38;97211.00;4933404;28;20266;-77
2022/06/16 03:45:53;;;;;;;4.00;3.60;;;;;;;20.18;51.54;97205.53;4933316;28;20211;-77
2022/06/16 03:48:18;;;;;;;4.28;3.80;;;;;;;20.17;51.60;97208.50;4965578;28;20171;-77
2022/06/16 03:50:43;;;;;;;4.28;3.58;;;;;;;20.14;51.44;97209.09;4950189;28;20226;-77
2022/06/16 03:53:10;;;;;;;5.40;3.42;;;;;;;20.18;51.59;97221.38;4966049;28;20727;-77
2022/06/16 03:55:35;;;;;;;3.88;3.50;;;;;;;20.21;51.37;97225.28;4966014;28;20697;-77
2022/06/16 03:58:01;;;;;;;3.72;3.35;;;;;;;20.16;52.14;97218.28;4977173;28;20277;-77
2022/06/16 04:00:26;;;;;;;4.35;3.30;;;;;;;20.23;52.25;97217.84;4962594;28;20183;-77
2022/06/16 04:05:37;;;;;;;4.28;3.88;;;;;;;20.25;52.07;97223.59;4959756;28;20233;-77
2022/06/16 04:08:03;;;;;;;4.50;3.45;;;;;;;20.34;51.84;97219.13;4961062;28;20774;-77
2022/06/16 04:10:29;;;;;;;3.90;3.40;;;;;;;20.40;51.95;97217.88;4970435;28;20198;-77
2022/06/16 04:12:54;;;;;;;4.05;3.60;;;;;;;20.46;51.88;97221.19;4964438;28;20581;-77
2022/06/16 04:15:20;;;;;;;4.28;3.88;;;;;;;20.53;51.21;97220.75;4959638;28;20175;-77
2022/06/16 04:17:45;;;;;;;4.85;3.22;;;;;;;20.61;51.22;97222.59;4971586;28;20292;-77
2022/06/16 04:20:13;;;;;;;3.22;2.92;;;;;;;20.69;50.35;97223.75;4949508;28;20393;-77
2022/06/16 04:22:39;;;;;;;3.53;3.08;;;;;;;20.77;50.47;97221.13;4950274;28;20279;-77
2022/06/16 04:25:06;;;;;;;3.47;3.05;;;;;;;20.85;50.91;97226.72;4932966;28;20250;-77
2022/06/16 04:27:32;;;;;;;3.42;3.13;;;;;;;20.93;50.86;97229.38;4954862;28;20256;-77
2022/06/16 04:29:58;;;;;;;4.30;3.60;;;;;;;21.02;51.12;97229.38;4952164;28;20263;-77
2022/06/16 04:32:23;;;;;;;3.60;3.30;;;;;;;20.98;51.48;97225.03;4938384;28;20206;-77
2022/06/16 04:34:49;;;;;;;5.18;3.47;;;;;;;21.04;51.24;97229.06;4966517;28;20673;-77
2022/06/16 04:37:14;;;;;;;4.15;3.53;;;;;;;21.08;51.23;97230.03;4964735;28;20475;-77
2022/06/16 04:39:40;;;;;;;3.97;3.67;;;;;;;21.13;52.19;97230.63;4939506;28;20284;-77
2022/06/16 04:42:05;;;;;;;5.13;3.80;;;;;;;21.12;51.95;97230.94;4965321;28;20304;-77
2022/06/16 04:44:32;;;;;;;4.38;3.78;;;;;;;21.16;52.31;97225.81;4968920;28;20210;-77
2022/06/16 04:46:58;;;;;;;4.25;3.47;;;;;;;21.21;51.76;97231.72;4941687;28;20340;-77
2022/06/16 04:49:24;;;;;;;3.47;3.17;;;;;;;21.26;52.19;97236.06;4971303;28;20392;-77
2022/06/16 04:51:49;;;;;;;3.53;3.22;;;;;;;21.29;51.55;97230.16;4932905;28;20241;-77
2022/06/16 04:54:15;;;;;;;4.25;3.85;;;;;;;21.36;51.70;97238.41;4951221;28;20699;-77
2022/06/16 04:56:40;;;;;;;6.82;5.03;;;;;;;21.34;52.23;97232.66;4935329;28;20687;-77
2022/06/16 04:59:06;;;;;;;5.75;4.72;;;;;;;21.30;52.70;97242.28;4966336;28;20324;-77
2022/06/16 05:01:31;;;;;;;5.07;4.68;;;;;;;21.30;52.41;97250.25;4967916;28;20280;-77
2022/06/16 05:03:59;;;;;;;4.93;4.53;;;;;;;21.38;52.12;97243.41;4963849;28;20156;-77
2022/06/16 05:06:24;;;;;;;4.53;3.88;;;;;;;21.49;51.07;97244.69;4971572;28;20647;-77
2022/06/16 05:08:49;;;;;;;5.68;4.00;;;;;;;21.54;50.69;97257.75;4931052;28;20266;-76
2022/06/16 05:11:15;;;;;;;4.40;3.90;;;;;;;21.62;50.74;97250.88;4962771;28;20191;-76
2022/06/16 05:13:40;;;;;;;5.35;3.97;;;;;;;21.64;50.40;97261.94;4963541;28;20198;-76
2022/06/16 05:16:06;;;;;;;3.65;3.35;;;;;;;21.78;49.20;97259.91;4947279;28;20636;-77
2022/06/16 05:18:31;;;;;;;5.93;3.90;;;;;;;21.89;48.90;97268.28;4951804;28;20703;-76
2022/06/16 05:21:11;;;;;;;4.10;3.05;;;;;;;21.84;48.12;97271.88;4946769;28;20203;-77
2022/06/16 05:23:37;;;;;;;5.78;3.28;;;;;;;21.88;47.82;97279.97;4942338;28;20198;-77
2022/06/16 05:26:03;;;;;;;5.13;3.58;;;;;;;21.98;47.75;97278.88;4964082;28;20523;-77
2022/06/16 05:28:30;;;;;;;3.80;3.10;;;;;;;21.97;47.70;97280.75;4962798;28;20225;-76
2022/06/16 05:30:56;;;;;;;5.38;3.65;;;;;;;21.83;48.45;97296.03;4947531;28;20191;-77
2022/06/16 05:33:21;;;;;;;4.03;3.50;;;;;;;22.04;48.08;97296.19;4942999;28;20641;-76
2022/06/16 05:36:06;;;;;;;4.90;2.90;;;;;;;21.94;48.33;97309.78;4963027;28;20194;-76
2022/06/16 05:38:32;;;;;;;3.28;2.95;;;;;;;22.28;47.43;97308.13;4965610;28;20191;-76
2022/06/16 05:41:04;;;;;;;3.75;3.08;;;;;;;22.29;46.66;97317.66;4951007;28;20210;-75
2022/06/16 05:43:30;;;;;;;4.90;3.38;;;;;;;22.37;47.43;97325.56;4946641;28;20301;-76
2022/06/16 05:45:56;;;;;;;4.20;3.10;;;;;;;22.40;47.21;97332.91;4955695;28;20167;-76
2022/06/16 05:48:22;;;;;;;3.72;3.05;;;;;;;22.36;47.31;97328.53;4967104;28;20190;-75
2022/06/16 05:50:47;;;;;;;3.03;2.65;;;;;;;22.49;47.38;97332.88;4964390;28;20288;-76
2022/06/16 05:53:13;;;;;;;3.80;3.10;;;;;;;22.55;46.95;97336.91;4964241;28;20337;-76
2022/06/16 05:55:38;;;;;;;3.95;3.30;;;;;;;22.67;47.13;97332.81;4964073;28;20324;-76
2022/06/16 05:58:04;;;;;;;4.95;3.53;;;;;;;22.61;46.59;97332.97;4965516;28;20250;-76
2022/06/16 06:00:30;;;;;;;3.13;2.83;;;;;;;22.85;46.55;97339.59;4943638;28;20203;-77
2022/06/16 06:02:57;;;;;;;5.80;3.53;;;;;;;22.71;46.56;97336.38;4969869;28;20201;-76
2022/06/16 06:05:23;;;;;;;4.22;3.63;;;;;;;22.75;46.79;97335.41;4964242;28;20275;-76
2022/06/16 06:18:45;;;;;;;5.18;3.30;;;;;;;23.37;44.96;97354.44;4963659;28;20288;-76
2022/06/16 06:21:10;;;;;;;4.68;3.30;;;;;;;23.63;44.48;97356.94;4951091;28;20176;-76
2022/06/16 06:23:35;;;;;;;3.20;2.90;;;;;;;23.61;44.19;97361.78;4947765;28;20275;-77
2022/06/16 06:26:01;;;;;;;3.67;3.33;;;;;;;23.80;44.00;97357.88;4950833;28;20122;-77
2022/06/16 06:28:26;;;;;;;6.60;3.20;;;;;;;23.94;44.44;97355.75;4933936;28;20618;-76
2022/06/16 06:30:52;;;;;;;4.70;3.17;;;;;;;24.33;43.53;97361.59;4951362;28;20175;-77
2022/06/16 06:33:17;;;;;;;6.68;3.45;;;;;;;24.28;42.97;97370.59;4934380;28;20206;-77
2022/06/16 06:35:43;;;;;;;3.67;3.05;;;;;;;24.59;43.62;97372.00;4957592;28;20660;-77
2022/06/16 06:38:08;;;;;;;3.65;2.83;;;;;;;24.86;42.53;97378.59;4941172;28;20194;-77
2022/06/16 06:40:35;;;;;;;3.22;2.80;;;;;;;25.15;41.81;97384.75;4967178;28;20347;-76
2022/06/16 06:43:01;;;;;;;4.28;3.20;;;;;;;24.95;41.42;97380.34;4968059;28;20152;-76
2022/06/16 06:45:27;;;;;;;4.13;3.22;;;;;;;24.86;41.70;97394.56;4967466;28;20194;-77
2022/06/16 06:47:53;;;;;;;5.47;3.15;;;;;;;25.11;41.47;97394.56;4956561;28;20633;-77
2022/06/16 06:50:21;;;;;;;3.92;2.60;;;;;;;25.24;41.36;97393.44;4967272;28;20706;-77
2022/06/16 06:52:47;;;;;;;3.97;3.20;;;;;;;25.67;40.73;97395.81;4967802;28;20194;-77
2022/06/16 06:55:12;;;;;;;2.85;2.65;;;;;;;25.97;40.45;97404.28;4969294;28;20210;-77
2022/06/16 06:57:38;;;;;;;4.47;3.00;;;;;;;25.97;40.01;97406.97;4982010;28;20236;-77
2022/06/16 07:00:04;;;;;;;3.90;2.75;;;;;;;26.17;39.58;97410.56;4951999;28;20281;-77
2022/06/16 07:02:29;;;;;;;3.72;3.13;;;;;;;26.39;39.20;97417.22;4964441;28;20202;-77
2022/06/16 07:04:54;;;;;;;2.70;2.50;;;;;;;26.31;39.10;97415.50;4966848;28;20206;-77
2022/06/16 07:07:22;;;;;;;5.15;3.00;;;;;;;25.80;39.32;97424.75;4968853;28;20269;-77
2022/06/16 07:09:47;;;;;;;3.15;2.72;;;;;;;26.39;39.06;97416.44;4953920;28;20328;-77
2022/06/16 07:12:13;;;;;;;4.15;2.70;;;;;;;26.71;39.51;97422.63;4958558;28;20394;-76
2022/06/16 07:14:44;;;;;;;3.38;2.70;;;;;;;26.72;38.33;97429.53;4954033;28;20281;-77
2022/06/16 07:17:09;;;;;;;3.85;2.72;;;;;;;26.41;38.79;97430.22;4966946;28;20262;-77
2022/06/16 07:19:35;;;;;;;3.95;2.75;;;;;;;26.66;38.59;97436.22;4947725;28;20608;-77
2022/06/16 07:22:02;;;;;;;4.65;2.70;;;;;;;26.55;38.25;97430.59;4966332;28;20325;-76
2022/06/16 07:24:27;;;;;;;2.85;2.65;;;;;;;27.08;38.10;97436.50;4949074;28;20744;-76
2022/06/16 07:26:52;;;;;;;4.93;3.00;;;;;;;27.33;38.55;97443.56;4965770;28;20348;-77
2022/06/16 07:29:18;;;;;;;3.78;2.92;;;;;;;27.19;37.15;97442.06;4967726;28;20656;-77
2022/06/16 07:31:43;;;;;;;3.95;2.75;;;;;;;27.68;36.50;97437.44;4931115;28;20179;-76
2022/06/16 07:34:09;;;;;;;2.70;2.50;;;;;;;27.63;36.30;97433.13;4950038;28;20394;-77
2022/06/16 07:36:35;;;;;;;3.80;2.63;;;;;;;27.97;36.23;97441.50;4974389;28;20288;-77
2022/06/16 07:39:01;;;;;;;5.03;2.70;;;;;;;28.14;36.00;97445.66;4967757;28;20206;-76
2022/06/16 07:41:33;;;;;;;2.90;2.70;;;;;;;28.40;34.91;97453.78;4972272;28;20211;-76
2022/06/16 07:44:00;;;;;;;4.10;3.20;;;;;;;28.47;34.93;97453.13;4967581;28;20703;-77
2022/06/16 07:46:25;;;;;;;4.90;3.05;;;;;;;28.58;33.72;97442.63;4948849;28;20277;-77
2022/06/16 07:48:51;;;;;;;3.30;3.00;;;;;;;28.37;34.59;97443.78;4949528;28;20275;-77
2022/06/16 07:51:20;;;;;;;3.95;3.58;;;;;;;28.26;35.11;97442.81;4971969;28;20194;-77
2022/06/16 07:53:46;;;;;;;5.35;3.13;;;;;;;28.04;35.44;97449.66;4965806;28;20648;-76
2022/06/16 07:56:11;;;;;;;4.00;2.75;;;;;;;28.62;34.48;97448.03;4949202;28;20231;-76
2022/06/16 07:58:39;;;;;;;3.85;3.50;;;;;;;28.82;34.04;97454.91;4965002;28;20320;-75
2022/06/16 08:01:07;;;;;;;2.70;2.45;;;;;;;29.10;34.54;97441.19;4965864;28;20218;-77
2022/06/16 08:03:33;;;;;;;2.72;2.50;;;;;;;29.25;34.30;97442.22;4955664;28;20351;-77
2022/06/16 08:05:59;;;;;;;3.83;2.75;;;;;;;29.44;33.14;97449.38;4971918;28;20324;-77
2022/06/16 08:08:25;;;;;;;4.07;2.85;;;;;;;29.62;32.83;97456.88;4965493;28;20268;-77
2022/06/16 08:10:52;;;;;;;3.00;2.72;;;;;;;29.76;32.14;97453.59;4967596;28;20255;-77
2022/06/16 08:13:18;;;;;;;3.55;2.72;;;;;;;29.94;32.02;97448.47;4965493;28;20169;-77
2022/06/16 08:15:45;;;;;;;6.03;2.60;;;;;;;29.86;32.31;97447.63;4973853;28;20206;-77
2022/06/16 08:18:15;;;;;;;3.10;2.80;;;;;;;29.94;32.76;97451.94;4948384;28;20199;-77
2022/06/16 08:20:41;;;;;;;4.28;2.72;;;;;;;29.54;32.65;97461.38;4937273;28;20271;-77
2022/06/16 08:23:07;;;;;;;3.33;3.03;;;;;;;29.97;31.84;97463.84;4957240;28;20230;-77
2022/06/16 08:25:33;;;;;;;2.80;2.58;;;;;;;29.62;32.32;97470.31;4964955;28;20613;-76
2022/06/16 08:27:59;;;;;;;3.10;2.80;;;;;;;29.61;32.07;97476.78;4964683;28;20241;-77
2022/06/16 08:30:25;;;;;;;3.90;2.80;;;;;;;30.21;31.13;97474.13;4948850;28;20267;-76
2022/06/16 08:32:51;;;;;;;4.22;3.20;;;;;;;30.40;29.83;97483.16;4978192;28;20292;-77
2022/06/16 08:35:16;;;;;;;3.53;2.47;;;;;;;30.47;30.06;97490.53;4965143;28;20785;-77
2022/06/16 08:37:42;;;;;;;4.15;2.70;;;;;;;30.46;30.59;97497.06;4948156;28;20208;-77
2022/06/16 08:40:09;;;;;;;4.90;2.53;;;;;;;29.96;31.28;97495.31;4947416;28;20288;-78
2022/06/16 08:42:52;;;;;;;2.78;2.58;;;;;;;30.32;29.93;97487.66;4947981;28;20187;-77
2022/06/16 08:45:32;;;;;;;2.90;2.65;;;;;;;30.68;29.43;97490.75;4955369;28;20632;-77
2022/06/16 08:48:23;;;;;;;2.92;2.72;;;;;;;30.36;30.36;97485.81;4948509;28;20182;-78
2022/06/16 08:50:55;;;;;;;5.53;2.80;;;;;;;30.48;31.57;97492.09;4950863;28;20226;-77
2022/06/16 08:53:24;;;;;;;2.78;2.58;;;;;;;30.96;29.83;97487.56;4949059;28;20281;-77
2022/06/16 08:55:55;;;;;;;3.40;3.10;;;;;;;30.31;30.80;97494.16;4964910;28;20186;-78
2022/06/16 08:58:32;;;;;;;3.08;2.78;;;;;;;30.56;31.33;97491.78;4954984;28;20107;-78
2022/06/16 09:01:09;;;;;;;3.60;2.83;;;;;;;30.74;30.52;97493.88;4965052;28;20370;-77
2022/06/16 09:03:38;;;;;;;4.32;2.90;;;;;;;30.94;29.65;97499.84;4954368;28;20244;-77
2022/06/16 09:06:14;;;;;;;4.25;3.08;;;;;;;31.06;28.97;97496.09;4964866;28;20257;-77
2022/06/16 09:08:45;;;;;;;7.80;3.00;;;;;;;31.12;29.96;97505.34;4958645;28;20202;-77
2022/06/16 09:11:17;;;;;;;4.85;2.88;;;;;;;31.04;29.24;97501.84;4964700;28;20193;-77
2022/06/16 09:14:14;;;;;;;5.07;2.85;;;;;;;30.60;30.67;97499.88;4966793;28;20697;-78
2022/06/16 09:16:59;;;;;;;3.08;2.80;;;;;;;31.69;28.17;97496.94;4978971;28;20651;-78
2022/06/16 09:19:42;;;;;;;3.75;2.90;;;;;;;32.08;28.11;97507.13;4954981;28;20210;-77
2022/06/16 09:22:17;;;;;;;4.97;3.30;;;;;;;32.35;28.70;97513.00;4963246;28;20213;-78
2022/06/16 09:25:03;;;;;;;4.90;3.17;;;;;;;31.99;27.92;97509.38;4966717;28;20369;-77
2022/06/16 09:27:41;;;;;;;4.65;3.03;;;;;;;32.34;27.69;97516.06;4973036;28;20194;-76
2022/06/16 09:30:15;;;;;;;4.05;2.80;;;;;;;32.28;27.95;97507.59;4970858;28;20720;-77
2022/06/16 09:32:46;;;;;;;4.57;2.88;;;;;;;32.14;28.99;97510.25;4932762;28;20233;-77
2022/06/16 09:35:18;;;;;;;3.85;2.88;;;;;;;32.11;27.55;97517.16;4964895;28;20293;-77
2022/06/16 09:37:54;;;;;;;3.00;2.70;;;;;;;32.25;26.55;97506.44;4961631;28;20300;-77
2022/06/16 09:40:23;;;;;;;3.50;3.20;;;;;;;32.12;27.33;97507.19;4979386;28;20202;-77
2022/06/16 09:43:07;;;;;;;4.95;2.65;;;;;;;32.73;25.89;97501.94;4948181;28;20187;-77
2022/06/16 09:46:03;;;;;;;4.60;3.00;;;;;;;32.43;26.64;97509.19;4932223;28;20431;-77
2022/06/16 09:48:29;;;;;;;4.82;3.00;;;;;;;32.62;26.04;97515.41;4965502;28;20635;-78
2022/06/16 09:51:18;;;;;;;4.72;3.25;;;;;;;32.63;26.81;97523.13;4967227;28;20263;-77
2022/06/16 09:53:52;;;;;;;2.95;2.65;;;;;;;32.39;27.61;97524.59;4954546;28;20290;-77
2022/06/16 09:56:17;;;;;;;;;;;;;;;32.33;27.38;97525.34;4962321;28;20315;-77
2022/06/16 09:58:48;;;;;;;3.13;2.60;;;;;;;32.55;26.73;97524.22;4952163;28;20260;-76
2022/06/16 10:01:15;;;;;;;4.10;3.45;;;;;;;33.17;25.71;97527.81;4968529;28;20648;-77
2022/06/16 10:03:51;;;;;;;3.10;2.80;;;;;;;33.57;24.30;97529.34;4974959;28;20186;-77
2022/06/16 10:06:23;;;;;;;3.50;2.78;;;;;;;33.66;24.34;97538.97;4951930;28;20195;-77
2022/06/16 10:08:57;;;;;;;4.30;3.40;;;;;;;33.47;25.22;97538.22;4949173;28;20181;-77
2022/06/16 10:11:28;;;;;;;3.47;2.65;;;;;;;33.47;25.23;97548.22;4946124;28;20159;-77
2022/06/16 10:13:58;;;;;;;3.20;2.83;;;;;;;33.23;26.07;97545.19;4961106;28;20214;-77
2022/06/16 10:16:32;;;;;;;3.83;2.85;;;;;;;33.32;24.44;97550.97;4966291;28;20160;-77
2022/06/16 10:19:01;;;;;;;3.70;2.58;;;;;;;33.54;24.59;97551.72;4967051;28;20921;-77
2022/06/16 10:21:27;;;;;;;3.17;2.15;;;;;;;33.70;22.51;97551.31;4971192;28;20198;-76
2022/06/16 10:23:57;;;;;;;3.40;2.40;;;;;;;33.20;22.65;97562.16;4968774;28;20318;-76
2022/06/16 10:26:22;;;;;;;3.50;3.00;;;;;;;33.59;23.15;97566.75;4949410;28;20183;-77
2022/06/16 10:29:04;;;;;;;3.67;2.80;;;;;;;34.13;21.47;97562.00;4965913;28;20215;-76
2022/06/16 10:31:35;;;;;;;3.28;2.25;;;;;;;33.80;23.25;97565.22;4968703;28;20571;-77
2022/06/16 10:34:01;;;;;;;2.83;2.60;;;;;;;33.88;23.24;97566.72;4975025;28;20711;-77
2022/06/16 10:36:28;;;;;;;3.38;2.33;;;;;;;33.93;22.76;97567.09;4949706;28;20633;-77
2022/06/16 10:39:22;;;;;;;4.25;2.70;;;;;;;34.01;21.78;97575.94;4966657;28;20188;-76
2022/06/16 10:41:54;;;;;;;2.85;2.50;;;;;;;33.73;22.52;97582.97;4949734;28;20191;-77
2022/06/16 10:44:23;;;;;;;2.55;2.35;;;;;;;33.55;22.75;97574.06;4967651;28;20341;-77
2022/06/16 10:46:53;;;;;;;3.38;2.47;;;;;;;34.05;21.17;97576.72;4966188;28;20223;-77
2022/06/16 10:49:27;;;;;;;4.20;2.38;;;;;;;33.85;21.24;97573.69;4971736;28;20637;-76
2022/06/16 10:51:56;;;;;;;2.47;2.10;;;;;;;34.36;19.00;97582.44;4950582;28;20634;-76
2022/06/16 10:54:32;;;;;;;2.45;2.25;;;;;;;34.27;19.36;97582.06;4966113;28;20195;-77
2022/06/16 10:57:16;;;;;;;5.88;2.58;;;;;;;33.94;21.21;97586.78;4949549;28;20765;-76
2022/06/16 10:59:56;;;;;;;2.55;2.35;;;;;;;33.71;19.67;97585.28;4949894;28;20285;-77
2022/06/16 11:02:26;;;;;;;3.35;2.15;;;;;;;33.55;19.97;97584.88;4962681;28;20198;-77
2022/06/16 11:05:23;;;;;;;1.90;1.70;;;;;;;34.01;18.61;97575.19;4965502;28;20186;-77
2022/06/16 11:07:49;;;;;;;2.45;2.22;;;;;;;33.89;19.43;97571.72;4945701;28;20198;-76
2022/06/16 11:10:31;;;;;;;4.15;2.20;;;;;;;34.13;18.58;97578.22;4949497;28;20651;-77
2022/06/16 11:12:56;;;;;;;3.60;1.90;;;;;;;33.81;18.16;97588.34;4955836;28;20126;-77
2022/06/16 11:15:40;;;;;;;3.30;1.95;;;;;;;33.63;19.34;97583.72;4965469;28;20288;-77
2022/06/16 11:18:13;;;;;;;3.20;1.83;;;;;;;33.53;20.00;97581.78;4965782;28;20207;-76
2022/06/16 11:20:45;;;;;;;3.33;2.70;;;;;;;33.86;19.33;97588.75;4948642;28;20594;-76
2022/06/16 11:23:24;;;;;;;6.78;2.65;;;;;;;33.46;20.08;97582.56;4963219;28;20333;-77
2022/06/16 11:25:59;;;;;;;2.50;2.00;;;;;;;32.56;21.38;97587.78;4961338;28;20192;-77
2022/06/16 11:28:25;;;;;;;2.10;1.90;;;;;;;32.75;20.87;97585.94;4967276;28;20277;-76
2022/06/16 11:30:50;;;;;;;3.05;2.15;;;;;;;32.67;21.52;97580.53;4965747;28;20235;-76
2022/06/16 11:36:23;;;;;;;3.03;2.05;;;;;;;32.93;20.51;97575.94;4965458;28;20305;-77
2022/06/16 11:39:09;;;;;;;2.78;1.90;;;;;;;32.36;22.37;97575.78;4948733;28;20213;-76
2022/06/16 11:41:35;;;;;;;3.33;2.08;;;;;;;32.15;22.82;97569.16;4967235;28;20198;-76
2022/06/16 11:44:03;;;;;;;2.53;2.20;;;;;;;32.15;23.10;97582.63;4949234;28;20214;-76
2022/06/16 11:46:54;;;;;;;2.90;2.00;;;;;;;31.41;23.43;97583.59;4964592;28;20290;-75
2022/06/16 11:49:22;;;;;;;3.55;2.25;;;;;;;31.89;22.26;97583.59;4919456;28;20218;-76
2022/06/16 11:51:47;;;;;;;2.58;2.05;;;;;;;31.91;22.57;97576.69;4966957;28;20203;-76
2022/06/16 11:54:27;;;;;;;2.00;1.83;;;;;;;31.43;23.03;97578.63;4966914;28;20159;-78
2022/06/16 11:56:54;;;;;;;2.83;2.17;;;;;;;31.14;23.18;97583.78;4950514;28;20222;-77
2022/06/16 11:59:42;;;;;;;2.85;1.90;;;;;;;31.22;23.97;97592.69;4951224;28;20198;-76
2022/06/16 12:02:13;;;;;;;2.22;2.05;;;;;;;31.48;23.78;97584.44;4954462;28;20699;-77
2022/06/16 12:04:39;;;;;;;5.78;2.00;;;;;;;31.75;23.82;97576.19;4966904;28;20187;-77
2022/06/16 12:07:30;;;;;;;2.95;1.90;;;;;;;31.60;25.16;97575.34;4966266;28;20202;-76
2022/06/16 12:10:08;;;;;;;2.72;1.98;;;;;;;31.05;24.11;97577.91;4964024;28;20700;-76
2022/06/16 12:13:11;;;;;;;3.30;1.92;;;;;;;31.26;24.07;97574.66;4947507;28;20159;-75